Helena — SCGL — position and weather

sailwx.info

Track history (hours):
 
Tides and Currents Weather Stations Pressure Air Temp Water Temp Dewpoint Dewpoint Depression Visibility Wind Speed Wind Dir Waves Ship Positions

Helena

Last reported at 2014-Aug-23 19:33 UTC. Time now 2014-Aug-23 19:54 UTC.
Position N 56°54' E 017°06'.

Length 169 m; draft 7.2 m.

Type: Cargo ship. MMSI: 265145000.

Date/timePositionNaut miles runAvg speedWind from/ knotsBaromVisibWave heightAir tempDewpointWater temp
2014-Aug-23 19:33N 56°54' E 017°06'  
2014-Aug-19 10:20N 57°22' E 017°46'1216.1
2014-Aug-19 09:33N 57°11' E 017°37'8015.9
2014-Aug-19 04:33N 55°60' E 016°32'2216.6
2014-Aug-19 03:14N 55°49' E 015°58'1316.4
2014-Aug-19 02:28N 55°43' E 015°39'1516.4
2014-Aug-19 01:33N 55°36' E 015°16'1716.5
2014-Aug-19 00:33N 55°27' E 014°50'1616.0
2014-Aug-18 23:33N 55°17' E 014°30'1616.0
2014-Aug-18 22:33N 55°04' E 014°13'1615.8
2014-Aug-18 21:33N 54°58' E 013°47'1716.7
2014-Aug-18 20:32N 54°52' E 013°19'1616.5
2014-Aug-18 19:33N 54°47' E 012°53'1616.4
2014-Aug-18 18:33N 54°37' E 012°30'1716.5
2014-Aug-18 17:33N 54°25' E 012°11'1716.4
2014-Aug-18 16:32N 54°18' E 011°44'1916.7
2014-Aug-18 15:25N 54°08' E 011°17'4 0.1
2014-Aug-17 08:33N 54°08' E 011°10'1313.4
2014-Aug-17 07:33N 54°15' E 011°29'1513.3
2014-Aug-17 06:27N 54°23' E 011°51'1111.9
2014-Aug-17 05:33N 54°26' E 012°08'1313.0
2014-Aug-17 04:33N 54°38' E 012°18'1313.3
2014-Aug-17 03:33N 54°45' E 012°37'1413.4
2014-Aug-17 02:32N 54°51' E 012°59'1313.5
2014-Aug-17 01:32N 54°55' E 013°21'2613.2
2014-Aug-16 23:33N 55°04' E 014°04'1413.5
2014-Aug-16 22:29N 55°15' E 014°20'1313.8
2014-Aug-16 21:33N 55°25' E 014°35'1413.8
2014-Aug-16 20:33N 55°33' E 014°55'1413.7
2014-Aug-16 19:31N 55°40' E 015°17'1313.6
2014-Aug-16 18:32N 55°47' E 015°37'1913.7
2014-Aug-16 17:09N 55°56' E 016°06'813.6
2014-Aug-16 16:34N 56°00' E 016°19'5112.7
2014-Aug-16 12:33N 56°45' E 017°02'1313.2
2014-Aug-16 11:33N 56°58' E 017°08'1413.7
2014-Aug-16 10:33N 57°11' E 017°16'1413.7
2014-Aug-16 09:33N 57°23' E 017°29'1413.6
2014-Aug-16 08:33N 57°34' E 017°42'  
Track history (hours):
 
Tides and Currents Weather Stations Pressure Air Temp Water Temp Dewpoint Dewpoint Depression Visibility Wind Speed Wind Dir Waves Ship Positions

Helena

Last reported at 2014-Aug-23 19:33 UTC. Time now 2014-Aug-23 19:54 UTC.
Position N 56°54' E 017°06'.

Length 169 m; draft 7.2 m.

Type: Cargo ship. MMSI: 265145000.

Date/timePositionNaut miles runAvg speedWind from/ knotsBaromVisibWave heightAir tempDewpointWater temp
2014-Aug-23 19:33N 56°54' E 017°06'  
2014-Aug-19 10:20N 57°22' E 017°46'1216.1
2014-Aug-19 09:33N 57°11' E 017°37'8015.9
2014-Aug-19 04:33N 55°60' E 016°32'2216.6
2014-Aug-19 03:14N 55°49' E 015°58'1316.4
2014-Aug-19 02:28N 55°43' E 015°39'1516.4
2014-Aug-19 01:33N 55°36' E 015°16'1716.5
2014-Aug-19 00:33N 55°27' E 014°50'1616.0
2014-Aug-18 23:33N 55°17' E 014°30'1616.0
2014-Aug-18 22:33N 55°04' E 014°13'1615.8
2014-Aug-18 21:33N 54°58' E 013°47'1716.7
2014-Aug-18 20:32N 54°52' E 013°19'1616.5
2014-Aug-18 19:33N 54°47' E 012°53'1616.4
2014-Aug-18 18:33N 54°37' E 012°30'1716.5
2014-Aug-18 17:33N 54°25' E 012°11'1716.4
2014-Aug-18 16:32N 54°18' E 011°44'1916.7
2014-Aug-18 15:25N 54°08' E 011°17'4 0.1
2014-Aug-17 08:33N 54°08' E 011°10'1313.4
2014-Aug-17 07:33N 54°15' E 011°29'1513.3
2014-Aug-17 06:27N 54°23' E 011°51'1111.9
2014-Aug-17 05:33N 54°26' E 012°08'1313.0
2014-Aug-17 04:33N 54°38' E 012°18'1313.3
2014-Aug-17 03:33N 54°45' E 012°37'1413.4
2014-Aug-17 02:32N 54°51' E 012°59'1313.5
2014-Aug-17 01:32N 54°55' E 013°21'2613.2
2014-Aug-16 23:33N 55°04' E 014°04'1413.5
2014-Aug-16 22:29N 55°15' E 014°20'1313.8
2014-Aug-16 21:33N 55°25' E 014°35'1413.8
2014-Aug-16 20:33N 55°33' E 014°55'1413.7
2014-Aug-16 19:31N 55°40' E 015°17'1313.6
2014-Aug-16 18:32N 55°47' E 015°37'1913.7
2014-Aug-16 17:09N 55°56' E 016°06'813.6
2014-Aug-16 16:34N 56°00' E 016°19'5112.7
2014-Aug-16 12:33N 56°45' E 017°02'1313.2
2014-Aug-16 11:33N 56°58' E 017°08'1413.7
2014-Aug-16 10:33N 57°11' E 017°16'1413.7
2014-Aug-16 09:33N 57°23' E 017°29'1413.6
2014-Aug-16 08:33N 57°34' E 017°42'  

Dump ship's entire track history